Time;durP1;ratioP1;P1;durP2;ratioP2;P2;SDS_P1;SDS_P2;PMS_P1;PMS_P2;Temp;Humidity;BMP_temperature;BMP_pressure;BME280_temperature;BME280_humidity;BME280_pressure;Samples;Min_cycle;Max_cycle;Signal;HPM_P1;HPM_P2
2023/07/30 00:01:06;;;;;;;;;;;;;;;19.49;59.17;99968.25;5001118;28;6791;-74
2023/07/30 00:03:31;;;;;;;;;;;;;;;19.48;59.97;99965.66;5015756;28;6836;-72
2023/07/30 00:05:57;;;;;;;;;;;;;;;19.49;59.76;99973.44;4998014;28;6854;-73
2023/07/30 00:08:23;;;;;;;;;;;;;;;19.51;59.37;99974.34;5004781;28;6791;-74
2023/07/30 00:10:49;;;;;;;;;;;;;;;19.51;59.70;99973.47;5002321;28;6863;-74
2023/07/30 00:13:14;;;;;;;;;;;;;;;19.51;60.22;99976.06;5001982;28;6991;-75
2023/07/30 00:15:40;;;;;;;;;;;;;;;19.50;59.92;99969.13;5017730;28;6983;-74
2023/07/30 00:18:05;;;;;;;;;;;;;;;19.53;60.37;99971.75;5005594;28;6840;-72
2023/07/30 00:20:31;;;;;;;;;;;;;;;19.58;60.17;99972.63;5016618;28;6772;-73
2023/07/30 00:22:56;;;;;;;;;;;;;;;19.67;60.36;99971.78;5019371;28;7033;-75
2023/07/30 00:25:22;;;;;;;;;;;;;;;19.77;60.24;99978.75;5001294;28;6792;-73
2023/07/30 00:27:47;;;;;;;;;;;;;;;19.86;59.81;99980.53;5015286;28;7246;-73
2023/07/30 00:30:13;;;;;;;;;;;;;;;19.93;59.80;99974.50;4997358;28;6771;-73
2023/07/30 00:32:43;;;;;;;;;;;;;;;19.99;59.66;99973.69;4986843;28;7242;-74
2023/07/30 00:35:09;;;;;;;;;;;;;;;20.05;59.83;99978.88;4994941;28;6823;-71
2023/07/30 00:37:35;;;;;;;;;;;;;;;20.10;59.71;99982.38;5015080;28;7253;-73
2023/07/30 00:40:02;;;;;;;;;;;;;;;20.18;59.49;99982.38;5019250;28;6994;-73
2023/07/30 00:42:27;;;;;;;;;;;;;;;20.25;59.54;99986.72;5012515;28;6792;-73
2023/07/30 00:44:53;;;;;;;;;;;;;;;20.36;59.84;99993.69;5027251;28;6803;-73
2023/07/30 00:47:18;;;;;;;;;;;;;;;20.43;59.24;99989.34;5006793;28;6793;-75
2023/07/30 00:49:44;;;;;;;;;;;;;;;20.51;59.51;99990.22;5020091;28;6994;-73
2023/07/30 00:52:10;;;;;;;;;;;;;;;20.59;59.09;99987.59;5006107;28;6858;-72
2023/07/30 00:54:36;;;;;;;;;;;;;;;20.65;59.16;99988.47;5007210;28;9920;-73
2023/07/30 00:57:02;;;;;;;;;;;;;;;20.73;58.98;99987.59;5020316;28;6855;-73
2023/07/30 00:59:27;;;;;;;;;;;;;;;20.78;58.94;99996.28;5019404;28;6812;-74
2023/07/30 01:01:53;;;;;;;;;;;;;;;20.85;58.77;99997.19;5005708;28;6975;-73
2023/07/30 01:04:19;;;;;;;;;;;;;;;20.90;58.53;99991.09;5002787;28;7031;-72
2023/07/30 01:06:44;;;;;;;;;;;;;;;20.94;58.54;99990.22;4983578;28;6957;-73
2023/07/30 01:09:11;;;;;;;;;;;;;;;20.99;58.43;99992.81;5025106;28;6916;-71
2023/07/30 01:11:37;;;;;;;;;;;;;;;21.03;57.97;99993.69;5008613;28;6799;-71
2023/07/30 01:14:05;;;;;;;;;;;;;;;21.06;58.05;99996.31;5007511;28;6800;-73
2023/07/30 01:16:31;;;;;;;;;;;;;;;21.09;57.84;99983.25;5026073;28;6796;-72
2023/07/30 01:18:58;;;;;;;;;;;;;;;21.12;57.95;99991.06;5027443;28;6783;-73
2023/07/30 01:21:24;;;;;;;;;;;;;;;21.13;57.65;99992.78;5012635;28;6803;-73
2023/07/30 01:23:50;;;;;;;;;;;;;;;21.15;57.75;99996.28;5010383;28;7166;-72
2023/07/30 01:26:22;;;;;;;;;;;;;;;21.15;57.44;99995.41;5026151;28;6775;-74
2023/07/30 01:28:49;;;;;;;;;;;;;;;21.14;57.27;99998.88;5004724;28;6823;-74
2023/07/30 01:31:16;;;;;;;;;;;;;;;21.17;57.19;99999.75;4985519;28;7222;-73
2023/07/30 01:33:46;;;;;;;;;;;;;;;21.18;57.31;99998.00;5018266;28;7180;-74
2023/07/30 01:36:15;;;;;;;;;;;;;;;21.18;57.44;100006.69;5006025;28;6791;-72
2023/07/30 01:38:42;;;;;;;;;;;;;;;21.19;57.14;100007.53;5009465;28;6811;-74
2023/07/30 01:41:08;;;;;;;;;;;;;;;21.19;57.33;100005.81;5010418;28;6788;-73
2023/07/30 01:43:33;;;;;;;;;;;;;;;21.21;57.51;100018.84;5019218;28;6811;-75
2023/07/30 01:45:59;;;;;;;;;;;;;;;21.23;57.09;100011.91;5005515;28;6788;-72
2023/07/30 01:48:24;;;;;;;;;;;;;;;21.25;57.09;100006.69;5025604;28;6780;-73
2023/07/30 01:50:51;;;;;;;;;;;;;;;21.25;57.04;100011.91;5009322;28;6828;-73
2023/07/30 01:53:16;;;;;;;;;;;;;;;21.23;57.14;100015.34;5007676;28;7147;-73
2023/07/30 01:55:46;;;;;;;;;;;;;;;21.22;57.17;100018.84;4992646;28;7811;-73
2023/07/30 01:58:13;;;;;;;;;;;;;;;21.21;56.95;100011.88;4992803;28;7581;-73
2023/07/30 02:00:39;;;;;;;;;;;;;;;21.20;56.61;100024.94;5007206;28;7014;-73
2023/07/30 02:03:04;;;;;;;;;;;;;;;21.18;56.71;100022.31;5021003;28;6824;-73
2023/07/30 02:05:30;;;;;;;;;;;;;;;21.14;56.56;100020.56;5020827;28;6832;-73
2023/07/30 02:07:55;;;;;;;;;;;;;;;21.08;56.67;100025.81;5001607;28;6863;-74
2023/07/30 02:10:20;;;;;;;;;;;;;;;21.01;56.60;100024.09;5009028;28;6911;-72
2023/07/30 02:12:46;;;;;;;;;;;;;;;20.94;56.64;100016.25;5000504;28;7084;-73
2023/07/30 02:15:11;;;;;;;;;;;;;;;20.91;56.82;100018.88;4996557;28;6997;-72
2023/07/30 02:17:37;;;;;;;;;;;;;;;20.90;56.77;100024.97;5000996;28;7062;-74
2023/07/30 02:20:03;;;;;;;;;;;;;;;20.93;56.75;100031.91;5015021;28;6780;-74
2023/07/30 02:22:28;;;;;;;;;;;;;;;20.93;56.64;100027.56;5029917;28;6956;-73
2023/07/30 02:24:57;;;;;;;;;;;;;;;20.95;57.07;100030.16;4990618;28;7177;-74
2023/07/30 02:27:22;;;;;;;;;;;;;;;20.94;56.66;100034.50;5010760;28;6803;-75
2023/07/30 02:29:48;;;;;;;;;;;;;;;20.97;56.39;100030.19;5011220;28;6791;-75
2023/07/30 02:32:13;;;;;;;;;;;;;;;20.93;56.42;100035.38;5006450;28;7175;-74
2023/07/30 02:34:38;;;;;;;;;;;;;;;20.93;56.04;100043.19;5021074;28;6787;-74
2023/07/30 02:37:04;;;;;;;;;;;;;;;20.91;56.01;100038.88;5018429;28;6807;-72
2023/07/30 02:39:29;;;;;;;;;;;;;;;20.87;56.03;100042.31;5003212;28;6787;-74
2023/07/30 02:41:55;;;;;;;;;;;;;;;20.77;55.15;100051.84;5004699;28;6783;-73
2023/07/30 02:44:20;;;;;;;;;;;;;;;20.65;54.65;100050.94;5001867;28;6990;-73
2023/07/30 02:46:46;;;;;;;;;;;;;;;20.53;54.35;100053.56;5007339;28;6783;-74
2023/07/30 02:49:11;;;;;;;;;;;;;;;20.42;54.16;100042.25;5018106;28;7242;-74
2023/07/30 02:51:37;;;;;;;;;;;;;;;20.29;53.69;100036.16;5012409;28;6809;-74
2023/07/30 02:54:07;;;;;;;;;;;;;;;20.11;53.43;100030.03;5015553;28;7090;-73
2023/07/30 02:56:33;;;;;;;;;;;;;;;19.92;54.08;100032.56;4987511;28;7113;-72
2023/07/30 02:58:59;;;;;;;;;;;;;;;19.76;54.17;100031.63;5010953;28;6933;-74
2023/07/30 03:01:24;;;;;;;;;;;;;;;19.64;54.56;100040.22;5012559;28;6963;-72
2023/07/30 03:03:50;;;;;;;;;;;;;;;19.55;54.61;100045.38;5005246;28;7010;-74
2023/07/30 03:06:16;;;;;;;;;;;;;;;19.49;54.76;100035.81;5011993;28;6775;-72
2023/07/30 03:08:45;;;;;;;;;;;;;;;19.41;54.28;100040.09;4996874;28;6996;-71
2023/07/30 03:11:10;;;;;;;;;;;;;;;19.28;54.79;100040.03;5018876;28;7340;-71
2023/07/30 03:13:36;;;;;;;;;;;;;;;19.14;55.16;100049.47;4995907;28;7238;-71
2023/07/30 03:16:01;;;;;;;;;;;;;;;19.01;55.70;100043.31;4992717;28;8731;-71
2023/07/30 03:18:27;;;;;;;;;;;;;;;18.91;56.24;100047.53;4981728;28;7422;-71
2023/07/30 03:20:59;;;;;;;;;;;;;;;18.83;56.20;100050.06;4999117;28;6911;-71
2023/07/30 03:23:24;;;;;;;;;;;;;;;18.77;57.12;100049.16;4998789;28;6875;-71
2023/07/30 03:25:50;;;;;;;;;;;;;;;18.71;57.17;100040.44;4997756;28;6776;-73
2023/07/30 03:28:15;;;;;;;;;;;;;;;18.71;57.04;100039.59;4995289;28;6780;-71
2023/07/30 03:30:40;;;;;;;;;;;;;;;18.71;57.40;100050.81;5010269;28;6795;-71
2023/07/30 03:33:06;;;;;;;;;;;;;;;18.74;57.78;100045.69;5007798;28;6780;-71
2023/07/30 03:35:31;;;;;;;;;;;;;;;18.79;58.07;100043.13;4982134;28;7129;-72
2023/07/30 03:37:57;;;;;;;;;;;;;;;18.83;57.54;100050.06;4992066;28;6848;-72
2023/07/30 03:40:23;;;;;;;;;;;;;;;18.88;57.32;100057.91;4999739;28;6879;-72
2023/07/30 03:42:49;;;;;;;;;;;;;;;18.93;57.82;100050.16;5016419;28;6787;-72
2023/07/30 03:45:14;;;;;;;;;;;;;;;18.99;57.23;100060.59;5016610;28;6819;-71
2023/07/30 03:47:40;;;;;;;;;;;;;;;19.04;57.42;100064.09;5018923;28;6852;-72
2023/07/30 03:50:06;;;;;;;;;;;;;;;19.10;56.93;100065.88;4980936;28;7106;-70
2023/07/30 03:52:31;;;;;;;;;;;;;;;19.14;57.08;100067.66;4996844;28;6946;-71
2023/07/30 03:54:57;;;;;;;;;;;;;;;19.18;57.23;100072.00;4982815;28;7231;-72
2023/07/30 03:57:22;;;;;;;;;;;;;;;19.23;56.57;100070.31;5005336;28;7022;-71
2023/07/30 03:59:48;;;;;;;;;;;;;;;19.25;56.46;100076.41;4997225;28;7796;-72
2023/07/30 04:02:15;;;;;;;;;;;;;;;19.29;56.10;100078.16;5002193;28;6823;-70
2023/07/30 04:04:43;;;;;;;;;;;;;;;19.33;55.92;100078.19;4995281;28;6811;-71
2023/07/30 04:07:09;;;;;;;;;;;;;;;19.36;55.98;100073.00;5019317;28;7213;-72
2023/07/30 04:09:34;;;;;;;;;;;;;;;19.38;55.73;100079.06;5000382;28;6788;-70
2023/07/30 04:11:59;;;;;;;;;;;;;;;19.36;55.84;100086.00;4995964;28;6788;-70
2023/07/30 04:14:25;;;;;;;;;;;;;;;19.25;56.15;100084.19;4996971;28;7485;-71
2023/07/30 04:16:50;;;;;;;;;;;;;;;19.08;56.05;100086.66;4980942;28;6825;-71
2023/07/30 04:19:16;;;;;;;;;;;;;;;18.93;56.55;100089.09;5001574;28;10559;-72
2023/07/30 04:21:41;;;;;;;;;;;;;;;18.80;57.35;100091.59;4994248;28;7078;-72
2023/07/30 04:24:07;;;;;;;;;;;;;;;18.69;58.00;100086.28;4995674;28;6780;-72
2023/07/30 04:26:32;;;;;;;;;;;;;;;18.61;58.50;100087.94;4993532;28;7227;-72
2023/07/30 04:28:58;;;;;;;;;;;;;;;18.54;58.73;100092.19;4982757;28;8406;-72
2023/07/30 04:31:23;;;;;;;;;;;;;;;18.46;58.70;100086.94;4978357;28;7037;-71
2023/07/30 04:33:49;;;;;;;;;;;;;;;18.42;58.70;100092.06;4998941;28;6976;-71
2023/07/30 04:36:14;;;;;;;;;;;;;;;18.38;59.25;100090.28;4992800;28;8768;-71
2023/07/30 04:38:40;;;;;;;;;;;;;;;18.35;59.16;100088.56;4988848;28;6976;-71
2023/07/30 04:41:05;;;;;;;;;;;;;;;18.31;59.63;100079.84;4990504;28;7802;-71
2023/07/30 04:43:31;;;;;;;;;;;;;;;18.31;59.48;100086.75;4982681;28;6807;-71
2023/07/30 04:45:56;;;;;;;;;;;;;;;18.29;59.56;100078.09;4989577;28;6787;-70
2023/07/30 04:48:22;;;;;;;;;;;;;;;18.30;60.11;100083.31;4988877;28;6878;-71
2023/07/30 04:50:47;;;;;;;;;;;;;;;18.34;60.75;100084.19;5001956;28;6926;-69
2023/07/30 04:53:13;;;;;;;;;;;;;;;18.37;59.99;100094.63;4964754;28;6954;-71
2023/07/30 04:55:38;;;;;;;;;;;;;;;18.43;59.82;100086.88;4980536;28;10147;-71
2023/07/30 04:58:05;;;;;;;;;;;;;;;18.45;60.65;100084.31;4968223;28;10307;-71
2023/07/30 05:00:30;;;;;;;;;;;;;;;18.44;60.01;100083.44;4966027;28;7030;-71
2023/07/30 05:02:56;;;;;;;;;;;;;;;18.41;60.42;100086.00;4980627;28;10301;-73
2023/07/30 05:05:21;;;;;;;;;;;;;;;18.37;60.59;100084.25;4986816;28;6779;-71
2023/07/30 05:07:47;;;;;;;;;;;;;;;18.37;61.01;100088.53;4972138;28;6961;-70
2023/07/30 05:10:12;;;;;;;;;;;;;;;18.36;60.96;100094.59;4955808;28;7925;-71
2023/07/30 05:12:38;;;;;;;;;;;;;;;18.34;61.04;100091.13;4959105;28;9959;-71
2023/07/30 05:15:04;;;;;;;;;;;;;;;18.36;60.80;100095.47;4999845;28;6922;-71
2023/07/30 05:17:30;;;;;;;;;;;;;;;18.40;61.18;100101.56;4972368;28;8241;-71
2023/07/30 05:19:55;;;;;;;;;;;;;;;18.43;60.94;100099.00;4995568;28;6969;-71
2023/07/30 05:22:21;;;;;;;;;;;;;;;18.49;61.28;100100.78;4990206;28;6804;-70
2023/07/30 05:24:46;;;;;;;;;;;;;;;18.55;61.14;100098.28;5006187;28;7321;-74
2023/07/30 05:27:12;;;;;;;;;;;;;;;18.62;60.83;100101.78;4990568;28;7077;-71
2023/07/30 05:29:38;;;;;;;;;;;;;;;18.69;60.90;100104.47;4987314;28;9297;-71
2023/07/30 05:32:04;;;;;;;;;;;;;;;18.75;61.62;100098.44;4970064;28;7273;-72
2023/07/30 05:34:29;;;;;;;;;;;;;;;18.82;61.08;100089.00;4985964;28;6805;-71
2023/07/30 05:36:55;;;;;;;;;;;;;;;18.89;61.24;100090.78;5005453;28;7252;-71
2023/07/30 05:39:20;;;;;;;;;;;;;;;18.96;61.18;100084.81;5001603;28;6852;-71
2023/07/30 05:41:46;;;;;;;;;;;;;;;19.05;61.39;100085.78;5000345;28;7690;-71
2023/07/30 05:44:11;;;;;;;;;;;;;;;19.15;60.96;100088.44;5006912;28;6835;-70
2023/07/30 05:46:37;;;;;;;;;;;;;;;19.27;61.37;100089.41;4974419;28;6969;-72
2023/07/30 05:49:02;;;;;;;;;;;;;;;19.40;61.14;100092.94;4985787;28;7187;-72
2023/07/30 05:51:28;;;;;;;;;;;;;;;19.52;61.16;100100.84;4989972;28;8046;-70
2023/07/30 05:53:53;;;;;;;;;;;;;;;19.61;61.01;100094.81;5004575;28;7242;-71
2023/07/30 05:56:19;;;;;;;;;;;;;;;19.70;60.58;100094.88;4987710;28;7258;-71
2023/07/30 05:58:45;;;;;;;;;;;;;;;19.79;60.40;100101.81;5004158;28;7244;-73
2023/07/30 06:01:12;;;;;;;;;;;;;;;19.88;60.45;100101.03;4966108;28;7423;-71
2023/07/30 06:03:37;;;;;;;;;;;;;;;19.95;59.97;100117.56;4973648;28;11807;-72
2023/07/30 06:06:03;;;;;;;;;;;;;;;20.02;59.79;100119.31;4984739;28;6791;-72
2023/07/30 06:08:29;;;;;;;;;;;;;;;20.08;59.85;100113.28;4996726;28;6819;-72
2023/07/30 06:10:55;;;;;;;;;;;;;;;20.14;59.29;100113.31;4992957;28;7006;-71
2023/07/30 06:13:20;;;;;;;;;;;;;;;20.21;59.56;100109.00;4992085;28;6856;-71
2023/07/30 06:15:46;;;;;;;;;;;;;;;20.26;58.84;100120.28;4986354;28;7186;-72
2023/07/30 06:18:12;;;;;;;;;;;;;;;20.32;59.02;100117.72;4995487;28;6799;-71
2023/07/30 06:20:37;;;;;;;;;;;;;;;20.36;59.06;100114.25;4995694;28;6966;-71
2023/07/30 06:23:03;;;;;;;;;;;;;;;20.42;58.61;100116.00;4990929;28;9729;-72
2023/07/30 06:25:30;;;;;;;;;;;;;;;20.47;58.54;100116.00;4991080;28;7240;-72
2023/07/30 06:27:58;;;;;;;;;;;;;;;20.57;58.61;100123.00;4990740;28;7669;-71
2023/07/30 06:30:24;;;;;;;;;;;;;;;20.68;58.80;100120.41;4993420;28;7295;-71
2023/07/30 06:32:49;;;;;;;;;;;;;;;20.81;58.38;100121.28;4994904;28;6883;-71
2023/07/30 06:35:15;;;;;;;;;;;;;;;20.92;58.23;100114.38;4991447;28;6949;-70
2023/07/30 06:37:40;;;;;;;;;;;;;;;21.01;57.97;100118.75;4993506;28;7192;-72
2023/07/30 06:40:06;;;;;;;;;;;;;;;21.11;57.78;100114.38;4990949;28;6855;-70
2023/07/30 06:42:32;;;;;;;;;;;;;;;21.18;57.76;100116.13;4999732;28;6819;-71
2023/07/30 06:44:58;;;;;;;;;;;;;;;21.26;57.50;100112.66;4993349;28;6796;-72
2023/07/30 06:47:23;;;;;;;;;;;;;;;21.32;57.22;100110.03;4984660;28;6828;-71
2023/07/30 06:49:49;;;;;;;;;;;;;;;21.36;57.27;100114.38;4989654;28;6962;-69
2023/07/30 06:52:14;;;;;;;;;;;;;;;21.40;57.42;100118.72;5004370;28;7630;-70
2023/07/30 06:54:39;;;;;;;;;;;;;;;21.45;56.73;100118.72;4981802;28;6804;-70
2023/07/30 06:57:05;;;;;;;;;;;;;;;21.47;56.83;100128.28;4981203;28;6796;-71
2023/07/30 06:59:31;;;;;;;;;;;;;;;21.48;56.51;100137.81;4976389;28;6929;-71
2023/07/30 07:01:56;;;;;;;;;;;;;;;21.48;56.49;100140.44;4989958;28;7232;-70
2023/07/30 07:04:22;;;;;;;;;;;;;;;21.44;56.35;100133.50;4994030;28;7015;-71
2023/07/30 07:06:47;;;;;;;;;;;;;;;21.43;56.46;100141.31;4993747;28;7022;-71
2023/07/30 07:09:12;;;;;;;;;;;;;;;21.40;56.33;100136.97;4995510;28;6784;-70
2023/07/30 07:11:38;;;;;;;;;;;;;;;21.37;56.23;100150.84;4987179;28;6780;-70
2023/07/30 07:14:04;;;;;;;;;;;;;;;21.36;56.29;100153.47;4992846;28;7325;-70
2023/07/30 07:16:29;;;;;;;;;;;;;;;21.34;56.33;100149.97;4981661;28;6963;-70
2023/07/30 07:18:55;;;;;;;;;;;;;;;21.32;56.29;100154.34;5000198;28;6860;-70
2023/07/30 07:21:20;;;;;;;;;;;;;;;21.28;56.65;100152.63;5012099;28;8395;-70
2023/07/30 07:23:46;;;;;;;;;;;;;;;21.28;56.69;100152.63;5014007;28;6792;-70
2023/07/30 07:26:11;;;;;;;;;;;;;;;21.31;56.74;100145.66;5010025;28;7286;-71
2023/07/30 07:28:37;;;;;;;;;;;;;;;21.36;56.41;100156.09;4993421;28;6834;-70
2023/07/30 07:31:02;;;;;;;;;;;;;;;21.44;57.01;100158.69;4980384;28;9357;-69
2023/07/30 07:33:28;;;;;;;;;;;;;;;21.54;57.13;100154.34;4987194;28;6935;-69
2023/07/30 07:36:05;;;;;;;;;;;;;;;21.67;57.17;100165.59;4992036;28;7261;-70
2023/07/30 07:38:31;;;;;;;;;;;;;;;21.76;56.73;100161.28;5009679;28;7349;-71
2023/07/30 07:40:57;;;;;;;;;;;;;;;21.92;56.60;100145.56;5007805;28;6818;-70
2023/07/30 07:43:22;;;;;;;;;;;;;;;21.99;56.15;100155.13;5012880;28;7132;-70
2023/07/30 07:45:47;;;;;;;;;;;;;;;22.06;56.12;100154.25;4986768;28;7247;-70
2023/07/30 07:48:13;;;;;;;;;;;;;;;22.12;55.67;100157.72;4991287;28;6788;-70
2023/07/30 07:50:38;;;;;;;;;;;;;;;22.15;55.74;100162.91;4993594;28;7087;-70
2023/07/30 07:53:04;;;;;;;;;;;;;;;22.15;55.20;100166.38;5010649;28;6811;-71
2023/07/30 07:55:29;;;;;;;;;;;;;;;22.16;55.10;100164.66;5012268;28;6864;-71
2023/07/30 07:57:55;;;;;;;;;;;;;;;22.16;55.29;100159.44;4991271;28;6799;-70
2023/07/30 08:00:20;;;;;;;;;;;;;;;22.15;55.36;100165.53;4996552;28;7232;-70
2023/07/30 08:02:46;;;;;;;;;;;;;;;22.14;55.12;100169.00;4996036;28;6936;-70
2023/07/30 08:05:13;;;;;;;;;;;;;;;22.15;55.23;100162.91;4986518;28;7060;-73
2023/07/30 08:07:39;;;;;;;;;;;;;;;22.22;55.12;100164.63;4993720;28;6808;-73
2023/07/30 08:10:05;;;;;;;;;;;;;;;22.33;55.56;100161.97;4999603;28;6847;-72
2023/07/30 08:12:34;;;;;;;;;;;;;;;22.40;54.91;100163.69;4981864;28;8139;-72
2023/07/30 08:14:59;;;;;;;;;;;;;;;22.43;54.51;100157.56;4989697;28;6814;-73
2023/07/30 08:17:25;;;;;;;;;;;;;;;22.44;54.52;100167.16;4992649;28;7070;-76
2023/07/30 08:19:50;;;;;;;;;;;;;;;22.50;53.98;100156.69;4994810;28;6807;-74
2023/07/30 08:22:16;;;;;;;;;;;;;;;22.69;54.94;100151.34;4994830;28;7071;-75
2023/07/30 08:24:41;;;;;;;;;;;;;;;22.94;54.56;100153.81;5013372;28;6945;-74
2023/07/30 08:27:07;;;;;;;;;;;;;;;23.19;53.77;100164.09;5001060;28;6791;-75
2023/07/30 08:29:32;;;;;;;;;;;;;;;23.32;53.07;100155.28;5004732;28;6866;-73
2023/07/30 08:31:58;;;;;;;;;;;;;;;23.41;52.96;100160.44;5019884;28;6914;-73
2023/07/30 08:34:23;;;;;;;;;;;;;;;23.47;52.84;100163.88;4986602;28;6958;-73
2023/07/30 08:36:49;;;;;;;;;;;;;;;23.45;51.94;100163.91;5006066;28;6871;-73
2023/07/30 08:39:14;;;;;;;;;;;;;;;23.46;52.28;100159.53;5000885;28;6962;-75
2023/07/30 08:41:40;;;;;;;;;;;;;;;23.44;51.31;100159.56;4997553;28;6795;-75
2023/07/30 08:44:06;;;;;;;;;;;;;;;23.42;51.22;100167.41;5016130;28;6791;-74
2023/07/30 08:46:31;;;;;;;;;;;;;;;23.40;51.62;100169.16;5015771;28;6932;-73
2023/07/30 08:48:57;;;;;;;;;;;;;;;23.36;51.48;100172.69;5018590;28;6791;-75
2023/07/30 08:51:24;;;;;;;;;;;;;;;23.29;51.01;100171.88;5015199;28;7325;-76
2023/07/30 08:53:51;;;;;;;;;;;;;;;23.25;51.73;100169.25;4999496;28;6811;-73
2023/07/30 08:56:17;;;;;;;;;;;;;;;23.48;52.49;100168.25;4978302;28;7169;-74
2023/07/30 08:58:43;;;;;;;;;;;;;;;23.84;51.38;100160.88;4977725;28;6963;-74
2023/07/30 09:01:11;;;;;;;;;;;;;;;24.33;51.47;100161.22;4988660;28;6970;-74
2023/07/30 09:03:40;;;;;;;;;;;;;;;24.93;50.50;100156.94;5010551;28;6868;-74
2023/07/30 09:06:06;;;;;;;;;;;;;;;25.58;49.18;100161.13;5003149;28;7218;-73
2023/07/30 09:08:32;;;;;;;;;;;;;;;26.25;49.10;100157.25;5022997;28;6826;-73
2023/07/30 09:11:11;;;;;;;;;;;;;;;26.89;47.59;100151.44;4991645;28;7193;-75
2023/07/30 09:13:41;;;;;;;;;;;;;;;27.27;46.22;100150.53;5000588;28;6937;-75
2023/07/30 09:16:14;;;;;;;;;;;;;;;27.51;45.94;100142.94;5003744;28;6868;-75
2023/07/30 09:18:49;;;;;;;;;;;;;;;27.67;45.10;100157.44;5024835;28;7021;-74
2023/07/30 09:21:14;;;;;;;;;;;;;;;27.79;43.98;100153.59;5022919;28;6946;-73
2023/07/30 09:23:42;;;;;;;;;;;;;;;27.81;42.80;100154.41;5012336;28;7180;-73
2023/07/30 09:26:07;;;;;;;;;;;;;;;27.90;42.90;100157.69;5014936;28;6876;-73
2023/07/30 09:28:33;;;;;;;;;;;;;;;27.90;42.39;100141.88;5020726;28;6978;-73
2023/07/30 09:31:07;;;;;;;;;;;;;;;27.96;41.39;100145.22;4993059;28;7017;-74
2023/07/30 09:33:34;;;;;;;;;;;;;;;28.30;41.33;100145.16;5012714;28;8029;-74
2023/07/30 09:36:03;;;;;;;;;;;;;;;28.82;40.76;100158.50;5011482;28;6959;-73
2023/07/30 09:38:33;;;;;;;;;;;;;;;29.15;39.25;100158.34;5011404;28;6896;-74
2023/07/30 09:41:02;;;;;;;;;;;;;;;29.44;38.84;100156.50;5028148;28;6815;-74
2023/07/30 09:43:34;;;;;;;;;;;;;;;29.83;38.21;100154.28;5035065;28;6977;-71
2023/07/30 09:46:05;;;;;;;;;;;;;;;29.77;38.12;100158.88;5032746;23;6812;-80
2023/07/30 09:48:34;;;;;;;;;;;;;;;29.59;38.70;100162.19;4938030;28;7336;-78
2023/07/30 09:51:07;;;;;;;;;;;;;;;29.38;38.68;100164.63;4947261;28;8499;-80
2023/07/30 09:53:37;;;;;;;;;;;;;;;29.05;38.82;100162.19;4966030;28;6979;-81
2023/07/30 09:56:04;;;;;;;;;;;;;;;28.75;38.75;100164.88;4949368;28;6863;-80
2023/07/30 09:58:33;;;;;;;;;;;;;;;28.84;39.49;100161.97;4962865;28;7177;-79
2023/07/30 10:00:59;;;;;;;;;;;;;;;29.06;38.24;100151.59;4937971;28;7079;-79
2023/07/30 10:03:36;;;;;;;;;;;;;;;;;;;;;
2023/07/30 10:06:11;;;;;;;;;;;;;;;29.15;37.62;100166.25;4951514;28;7143;-80
2023/07/30 10:08:40;;;;;;;;;;;;;;;29.00;37.76;100159.72;4935069;28;7022;-80
2023/07/30 10:11:13;;;;;;;;;;;;;;;28.73;37.08;100164.06;4935808;28;6848;-80
2023/07/30 10:13:48;;;;;;;;;;;;;;;28.21;37.52;100168.25;4937035;28;6996;-81
2023/07/30 10:16:15;;;;;;;;;;;;;;;27.64;37.89;100175.09;4960558;28;6846;-81
2023/07/30 10:18:42;;;;;;;;;;;;;;;27.27;38.53;100167.19;4948332;28;7350;-80
2023/07/30 10:21:25;;;;;;;;;;;;;;;27.12;39.59;100172.84;4935939;28;6999;-80
2023/07/30 10:24:10;;;;;;;;;;;;;;;27.30;40.09;100175.00;4961276;28;8581;-81
2023/07/30 10:26:38;;;;;;;;;;;;;;;27.77;39.78;100175.63;4935070;28;6860;-81
2023/07/30 10:29:29;;;;;;;;;;;;;;;28.13;38.39;100157.91;4949324;28;6983;-80
2023/07/30 10:32:10;;;;;;;;;;;;;;;28.28;38.78;100168.91;4938066;28;7080;-80
2023/07/30 10:34:47;;;;;;;;;;;;;;;28.27;37.57;100156.66;4960637;28;6881;-81
2023/07/30 10:37:20;;;;;;;;;;;;;;;28.10;37.12;100171.19;4963523;28;6985;-80
2023/07/30 10:39:50;;;;;;;;;;;;;;;27.70;37.48;100177.53;4928170;28;6991;-80
2023/07/30 10:42:17;;;;;;;;;;;;;;;27.28;37.94;100191.72;4932697;28;7000;-79
2023/07/30 10:44:48;;;;;;;;;;;;;;;26.94;38.63;100187.31;4945065;28;7183;-83
2023/07/30 10:47:13;;;;;;;;;;;;;;;26.70;39.10;100185.16;4932404;28;6807;-84
2023/07/30 10:49:47;;;;;;;;;;;;;;;26.54;39.25;100192.53;4947248;28;7043;-84
2023/07/30 10:52:12;;;;;;;;;;;;;;;26.37;39.86;100190.28;4959676;28;6984;-82
2023/07/30 10:54:38;;;;;;;;;;;;;;;26.18;39.62;100214.25;4980755;28;6966;-83
2023/07/30 10:57:04;;;;;;;;;;;;;;;25.86;40.78;100215.72;4935451;28;7112;-83
2023/07/30 10:59:36;;;;;;;;;;;;;;;25.64;41.98;100218.75;4931149;28;7029;-83
2023/07/30 11:02:13;;;;;;;;;;;;;;;25.69;42.62;100215.16;4930364;28;6998;-83
2023/07/30 11:04:38;;;;;;;;;;;;;;;25.95;42.50;100211.19;4930747;28;6857;-84
2023/07/30 11:07:08;;;;;;;;;;;;;;;26.16;42.09;100218.66;4948510;28;6967;-83
2023/07/30 11:09:34;;;;;;;;;;;;;;;26.26;41.97;100202.75;4948985;28;6987;-83
2023/07/30 11:12:08;;;;;;;;;;;;;;;26.22;41.41;100219.47;4947838;28;6950;-85
2023/07/30 11:14:36;;;;;;;;;;;;;;;26.08;41.53;100223.22;4934460;28;7005;-77
2023/07/30 11:17:02;;;;;;;;;;;;;;;25.95;41.03;100226.94;4980714;28;6994;-78
2023/07/30 11:19:29;;;;;;;;;;;;;;;25.58;41.43;100250.31;4951188;28;6815;-79
2023/07/30 11:21:56;;;;;;;;;;;;;;;24.95;42.23;100246.91;4933843;28;7305;-77
2023/07/30 11:27:44;;;;;;;;;;;;;;;23.60;44.98;100264.00;4948168;28;7118;-87
2023/07/30 11:30:10;;;;;;;;;;;;;;;23.49;46.80;100266.75;4943060;28;6854;-87
2023/07/30 11:32:38;;;;;;;;;;;;;;;23.65;47.75;100263.09;4935759;28;6979;-87
2023/07/30 11:35:16;;;;;;;;;;;;;;;23.89;47.50;100258.53;4946210;28;7005;-86
2023/07/30 11:37:49;;;;;;;;;;;;;;;24.21;47.88;100272.22;4931620;28;6999;-86
2023/07/30 11:40:15;;;;;;;;;;;;;;;24.55;48.16;100272.72;4930479;28;6827;-86
2023/07/30 11:42:47;;;;;;;;;;;;;;;24.95;48.08;100253.00;4929848;28;6907;-87
2023/07/30 11:45:25;;;;;;;;;;;;;;;25.26;47.59;100262.16;4962698;28;6855;-87
2023/07/30 11:47:52;;;;;;;;;;;;;;;25.43;47.37;100258.44;4951244;28;7006;-87
2023/07/30 11:50:26;;;;;;;;;;;;;;;25.69;46.62;100262.38;4946285;28;6877;-87
2023/07/30 11:52:55;;;;;;;;;;;;;;;25.85;46.24;100258.63;4948279;28;7161;-87
2023/07/30 11:55:27;;;;;;;;;;;;;;;25.83;45.70;100255.16;4967321;28;7004;-86
2023/07/30 11:57:53;;;;;;;;;;;;;;;25.77;45.34;100273.63;4954186;28;6919;-87
2023/07/30 12:00:27;;;;;;;;;;;;;;;25.81;46.13;100261.31;4938469;28;7012;-87
2023/07/30 12:02:53;;;;;;;;;;;;;;;26.12;46.32;100272.13;4949691;28;7199;-87
2023/07/30 12:05:39;;;;;;;;;;;;;;;26.42;45.45;100269.84;4936639;28;7020;-87
2023/07/30 12:08:08;;;;;;;;;;;;;;;26.58;44.93;100265.13;4935280;28;7340;-88
2023/07/30 12:10:45;;;;;;;;;;;;;;;26.65;44.58;100271.13;4950548;28;7162;-87
2023/07/30 12:13:36;;;;;;;;;;;;;;;26.71;44.22;100271.00;4950904;28;7158;-87
2023/07/30 12:16:08;;;;;;;;;;;;;;;26.65;43.74;100284.25;4953781;28;7012;-87
2023/07/30 12:18:34;;;;;;;;;;;;;;;26.37;43.42;100292.72;4950431;28;7219;-88
2023/07/30 12:20:59;;;;;;;;;;;;;;;25.97;43.80;100296.91;4930979;28;6964;-87
2023/07/30 12:23:25;;;;;;;;;;;;;;;25.61;44.25;100287.03;4950741;28;6975;-81
2023/07/30 12:25:51;;;;;;;;;;;;;;;25.41;44.66;100291.69;4984507;28;6813;-81
2023/07/30 12:28:22;;;;;;;;;;;;;;;25.41;45.16;100289.06;4936823;28;7369;-87
2023/07/30 12:30:53;;;;;;;;;;;;;;;25.95;46.17;100277.69;4936150;28;6848;-87
2023/07/30 12:33:21;;;;;;;;;;;;;;;26.96;45.87;100275.78;4936584;28;7003;-87
2023/07/30 12:35:49;;;;;;;;;;;;;;;27.90;44.09;100270.91;4952483;28;6996;-86
2023/07/30 12:38:21;;;;;;;;;;;;;;;28.68;42.37;100272.31;4949012;28;6990;-87
2023/07/30 12:40:50;;;;;;;;;;;;;;;29.34;41.74;100271.19;4936062;28;7566;-87
2023/07/30 12:43:18;;;;;;;;;;;;;;;29.96;40.11;100273.56;4935381;28;7070;-85
2023/07/30 12:45:50;;;;;;;;;;;;;;;30.51;39.41;100270.72;4934597;28;8138;-85
2023/07/30 12:48:16;;;;;;;;;;;;;;;31.06;38.07;100244.88;4933612;28;6845;-85
2023/07/30 12:50:45;;;;;;;;;;;;;;;31.21;36.90;100243.41;4952139;28;6839;-85